createdAt,value
2017-10-24T00:01:01.311Z,84.70
2017-10-24T00:03:29.465Z,84.40
2017-10-24T00:05:58.388Z,84.60
2017-10-24T00:08:26.538Z,84.50
2017-10-24T00:10:55.439Z,84.90
2017-10-24T00:13:23.560Z,84.80
2017-10-24T00:15:52.620Z,84.70
2017-10-24T00:18:20.754Z,85.30
2017-10-24T00:20:48.878Z,85.20
2017-10-24T00:23:17.040Z,84.90
2017-10-24T00:25:45.294Z,84.40
2017-10-24T00:28:13.565Z,84.60
2017-10-24T00:30:42.450Z,84.20
2017-10-24T00:33:10.611Z,84.10
2017-10-24T00:35:39.488Z,84.20
2017-10-24T00:38:08.453Z,84.80
2017-10-24T00:40:36.709Z,84.80
2017-10-24T00:43:04.877Z,84.40
2017-10-24T00:45:33.055Z,84.40
2017-10-24T00:48:01.178Z,84.60
2017-10-24T00:50:30.091Z,84.50
2017-10-24T00:52:58.231Z,84.40
2017-10-24T00:55:27.159Z,84.50
2017-10-24T00:57:55.310Z,84.40
2017-10-24T01:00:24.216Z,84.80
2017-10-24T01:02:53.091Z,84.80
2017-10-24T01:05:21.972Z,84.70
2017-10-24T01:07:50.912Z,85.20
2017-10-24T01:10:19.094Z,85.20
2017-10-24T01:12:47.229Z,85.20
2017-10-24T01:15:16.345Z,84.80
2017-10-24T01:17:44.521Z,84.50
2017-10-24T01:20:12.645Z,84.20
2017-10-24T01:22:41.566Z,83.60
2017-10-24T01:25:09.719Z,83.50
2017-10-24T01:27:37.932Z,83.50
2017-10-24T01:30:06.091Z,83.50
2017-10-24T01:32:34.233Z,84.10
2017-10-24T01:35:03.164Z,83.80
2017-10-24T01:37:31.321Z,83.80
2017-10-24T01:39:59.483Z,83.70
2017-10-24T01:42:28.400Z,83.10
2017-10-24T01:44:57.301Z,83.30
2017-10-24T01:47:26.221Z,83.80
2017-10-24T01:49:54.432Z,83.60
2017-10-24T01:52:22.600Z,83.80
2017-10-24T01:54:51.486Z,83.10
2017-10-24T01:57:19.619Z,83.00
2017-10-24T01:59:47.792Z,83.60
2017-10-24T02:02:15.936Z,83.70
2017-10-24T02:04:44.077Z,83.90
2017-10-24T02:07:13.452Z,84.00
2017-10-24T02:09:42.374Z,83.60
2017-10-24T02:12:10.522Z,83.60
2017-10-24T02:14:39.461Z,84.00
2017-10-24T02:17:07.697Z,84.00
2017-10-24T02:19:36.600Z,84.90
2017-10-24T02:22:05.485Z,84.90
2017-10-24T02:24:34.434Z,85.00
2017-10-24T02:27:02.602Z,85.00
2017-10-24T02:29:30.733Z,85.10
2017-10-24T02:31:58.913Z,85.20
2017-10-24T02:34:27.053Z,85.40
2017-10-24T02:36:55.972Z,85.20
2017-10-24T02:39:24.120Z,85.20
2017-10-24T02:41:52.358Z,85.50
2017-10-24T02:44:20.491Z,85.80
2017-10-24T02:46:48.670Z,85.90
2017-10-24T02:49:17.406Z,85.60
2017-10-24T02:51:45.534Z,85.50
2017-10-24T02:54:14.612Z,86.10
2017-10-24T02:56:42.777Z,85.90
2017-10-24T02:59:10.898Z,86.10
2017-10-24T03:01:39.040Z,86.00
2017-10-24T03:04:07.988Z,86.50
2017-10-24T03:06:36.117Z,86.50
2017-10-24T03:09:04.300Z,86.60
2017-10-24T03:11:33.227Z,87.00
2017-10-24T03:14:01.388Z,86.90
2017-10-24T03:16:29.521Z,86.90
2017-10-24T03:18:58.385Z,87.20
2017-10-24T03:21:27.305Z,87.50
2017-10-24T03:23:55.493Z,87.40
2017-10-24T03:26:23.744Z,88.10
2017-10-24T03:28:51.883Z,88.30
2017-10-24T03:31:20.831Z,88.80
2017-10-24T03:33:48.982Z,88.80
2017-10-24T03:36:17.116Z,88.60
2017-10-24T03:38:46.027Z,89.10
2017-10-24T03:41:15.501Z,89.00
2017-10-24T03:43:44.471Z,88.60
2017-10-24T03:46:12.625Z,88.60
2017-10-24T03:48:41.525Z,88.70
2017-10-24T03:51:09.686Z,88.60
2017-10-24T03:53:37.837Z,89.00
2017-10-24T03:56:05.987Z,88.90
2017-10-24T03:58:34.915Z,88.30
2017-10-24T04:01:03.085Z,88.30
2017-10-24T04:03:31.186Z,88.80
2017-10-24T04:05:59.320Z,88.60
2017-10-24T04:08:28.217Z,88.90
2017-10-24T04:10:56.371Z,88.90
2017-10-24T04:13:25.279Z,87.60
2017-10-24T04:15:53.425Z,87.50
2017-10-24T04:18:22.507Z,87.90
2017-10-24T04:20:50.689Z,87.90
2017-10-24T04:23:19.756Z,87.90
2017-10-24T04:25:47.936Z,87.80
2017-10-24T04:28:16.253Z,88.10
2017-10-24T04:30:44.403Z,87.60
2017-10-24T04:33:12.713Z,87.80
2017-10-24T04:35:41.027Z,88.50
2017-10-24T04:38:09.229Z,88.30
2017-10-24T04:40:38.144Z,89.20
2017-10-24T04:43:06.304Z,89.00
2017-10-24T04:45:35.218Z,89.60
2017-10-24T04:48:03.349Z,89.60
2017-10-24T04:50:32.460Z,89.70
2017-10-24T04:53:00.658Z,89.70
2017-10-24T04:55:28.944Z,89.60
2017-10-24T04:57:57.059Z,89.50
2017-10-24T05:00:26.006Z,89.70
2017-10-24T05:02:54.584Z,89.70
2017-10-24T05:05:22.699Z,89.90
2017-10-24T05:07:51.594Z,89.70
2017-10-24T05:10:20.662Z,89.60
2017-10-24T05:12:48.935Z,89.60
2017-10-24T05:15:17.094Z,89.40
2017-10-24T05:17:45.286Z,89.40
2017-10-24T05:20:13.749Z,89.00
2017-10-24T05:22:41.901Z,89.10
2017-10-24T05:25:10.352Z,88.90
2017-10-24T05:27:39.304Z,88.90
2017-10-24T05:30:07.529Z,88.90
2017-10-24T05:32:36.536Z,89.00
2017-10-24T05:35:05.433Z,88.90
2017-10-24T05:37:33.549Z,88.90
2017-10-24T05:40:02.487Z,88.70
2017-10-24T05:42:31.491Z,88.70
2017-10-24T05:45:00.030Z,88.80
2017-10-24T05:47:29.265Z,88.40
2017-10-24T05:49:57.428Z,88.40
2017-10-24T05:52:25.618Z,88.10
2017-10-24T05:54:53.957Z,88.20
2017-10-24T05:57:23.824Z,88.20
2017-10-24T05:59:52.895Z,88.10
2017-10-24T06:02:21.073Z,87.70
2017-10-24T06:04:50.062Z,87.60
2017-10-24T06:07:18.306Z,87.60
2017-10-24T06:09:47.186Z,87.60
2017-10-24T06:12:16.080Z,87.70
2017-10-24T06:14:44.451Z,87.70
2017-10-24T06:17:12.589Z,87.40
2017-10-24T06:19:40.850Z,87.40
2017-10-24T06:22:08.990Z,87.20
2017-10-24T06:24:37.391Z,87.50
2017-10-24T06:27:05.572Z,87.10
2017-10-24T06:29:33.761Z,86.70
2017-10-24T06:32:02.073Z,87.70
2017-10-24T06:34:30.230Z,87.10
2017-10-24T06:36:58.429Z,86.80
2017-10-24T06:39:27.857Z,86.70
2017-10-24T06:41:56.725Z,86.70
2017-10-24T06:44:24.890Z,86.50
2017-10-24T06:46:53.924Z,86.60
2017-10-24T06:49:22.075Z,86.50
2017-10-24T06:51:51.022Z,86.50
2017-10-24T06:54:19.157Z,86.50
2017-10-24T06:56:47.383Z,86.80
2017-10-24T06:59:15.665Z,87.00
2017-10-24T07:01:44.558Z,87.70
2017-10-24T07:04:13.474Z,87.20
2017-10-24T07:06:41.833Z,87.20
2017-10-24T07:09:10.768Z,86.40
2017-10-24T07:11:38.945Z,86.40
2017-10-24T07:14:07.224Z,86.30
2017-10-24T07:16:35.491Z,85.80
2017-10-24T07:19:03.610Z,86.40
2017-10-24T07:21:32.507Z,85.80
2017-10-24T07:24:01.509Z,85.80
2017-10-24T07:26:30.425Z,85.60
2017-10-24T07:28:58.558Z,85.50
2017-10-24T07:31:27.460Z,85.10
2017-10-24T07:33:55.613Z,85.00
2017-10-24T07:36:23.741Z,86.10
2017-10-24T07:38:51.913Z,85.00
2017-10-24T07:41:20.140Z,84.30
2017-10-24T07:43:49.029Z,83.10
2017-10-24T07:46:17.945Z,83.50
2017-10-24T07:48:46.074Z,83.50
2017-10-24T07:51:14.291Z,84.30
2017-10-24T07:53:42.435Z,83.50
2017-10-24T07:56:11.330Z,83.40
2017-10-24T07:58:39.695Z,83.30
2017-10-24T08:01:09.405Z,83.20
2017-10-24T08:03:38.305Z,83.30
2017-10-24T08:06:07.223Z,83.50
2017-10-24T08:08:36.351Z,83.40
2017-10-24T08:11:04.626Z,83.40
2017-10-24T08:13:32.774Z,84.00
2017-10-24T08:16:00.956Z,83.00
2017-10-24T08:18:29.252Z,83.00
2017-10-24T08:20:57.405Z,83.40
2017-10-24T08:23:25.533Z,83.50
2017-10-24T08:25:54.559Z,82.70
2017-10-24T08:28:22.713Z,82.70
2017-10-24T08:30:50.892Z,82.30
2017-10-24T08:33:19.081Z,82.20
2017-10-24T08:35:47.577Z,82.80
2017-10-24T08:38:16.476Z,82.00
2017-10-24T08:40:44.623Z,81.90
2017-10-24T08:43:12.905Z,82.50
2017-10-24T08:45:41.075Z,82.00
2017-10-24T08:48:09.278Z,81.70
2017-10-24T08:50:37.453Z,81.90
2017-10-24T08:53:05.677Z,81.70
2017-10-24T08:55:33.855Z,81.30
2017-10-24T08:58:02.166Z,81.20
2017-10-24T09:00:30.326Z,81.70
2017-10-24T09:02:58.496Z,81.30
2017-10-24T09:05:26.636Z,80.00
2017-10-24T09:07:54.835Z,80.20
2017-10-24T09:23:49.420Z,79.30
2017-10-24T09:26:29.353Z,80.10
2017-10-24T09:28:57.512Z,79.70
2017-10-24T09:31:26.648Z,79.70
2017-10-24T09:33:55.104Z,80.00
2017-10-24T09:36:30.865Z,80.70
2017-10-24T09:38:59.033Z,81.40
2017-10-24T09:41:27.237Z,79.30
2017-10-24T09:43:55.576Z,78.60
2017-10-24T09:46:42.507Z,78.40
2017-10-24T09:49:10.669Z,78.20
2017-10-24T09:51:45.724Z,77.60
2017-10-24T09:54:13.859Z,78.20
2017-10-24T09:56:45.001Z,78.50
2017-10-24T09:59:13.151Z,77.80
2017-10-24T10:01:47.829Z,77.60
2017-10-24T10:04:16.090Z,77.60
2017-10-24T10:07:00.970Z,77.30
2017-10-24T10:09:29.892Z,77.80
2017-10-24T10:11:58.244Z,77.70
2017-10-24T10:14:26.403Z,76.70
2017-10-24T10:16:54.575Z,76.70
2017-10-24T10:19:22.793Z,76.70
2017-10-24T10:21:53.467Z,76.30
2017-10-24T10:24:26.593Z,76.70
2017-10-24T10:26:54.687Z,77.10
2017-10-24T10:29:22.931Z,76.40
2017-10-24T10:31:51.148Z,76.60
2017-10-24T10:34:19.272Z,75.60
2017-10-24T10:36:47.536Z,75.40
2017-10-24T10:39:15.816Z,76.60
2017-10-24T10:41:43.950Z,75.70
2017-10-24T10:44:12.831Z,75.00
2017-10-24T10:46:41.734Z,74.60
2017-10-24T10:49:09.944Z,74.50
2017-10-24T10:51:38.214Z,75.00
2017-10-24T10:54:06.377Z,74.50
2017-10-24T10:56:34.561Z,74.90
2017-10-24T10:59:02.729Z,74.80
2017-10-24T11:01:30.928Z,74.40
2017-10-24T11:03:59.052Z,75.70
2017-10-24T11:06:27.213Z,74.10
2017-10-24T11:08:56.122Z,74.10
2017-10-24T11:11:24.317Z,74.00
2017-10-24T11:13:52.448Z,74.20
2017-10-24T11:16:21.365Z,72.80
2017-10-24T11:18:49.489Z,72.80
2017-10-24T11:21:17.695Z,72.90
2017-10-24T11:23:45.904Z,72.20
2017-10-24T11:26:14.026Z,73.50
2017-10-24T11:28:42.952Z,72.90
2017-10-24T11:31:11.441Z,72.90
2017-10-24T11:33:39.617Z,72.10
2017-10-24T11:36:07.781Z,71.30
2017-10-24T11:38:35.909Z,72.10
2017-10-24T11:41:04.092Z,72.80
2017-10-24T11:43:32.991Z,72.20
2017-10-24T11:46:01.188Z,72.20
2017-10-24T11:48:29.333Z,71.90
2017-10-24T11:50:58.241Z,71.70
2017-10-24T11:53:26.365Z,71.70
2017-10-24T11:55:54.528Z,72.80
2017-10-24T11:58:22.674Z,73.00
2017-10-24T12:00:50.821Z,73.50
2017-10-24T12:03:19.747Z,72.30
2017-10-24T12:05:47.921Z,72.30
2017-10-24T12:08:16.090Z,71.80
2017-10-24T12:10:45.029Z,73.00
2017-10-24T12:13:13.943Z,73.60
2017-10-24T12:15:42.116Z,73.60
2017-10-24T12:18:10.264Z,74.20
2017-10-24T12:20:38.408Z,73.20
2017-10-24T12:23:06.572Z,72.90
2017-10-24T12:25:34.713Z,73.40
2017-10-24T12:28:02.877Z,73.20
2017-10-24T12:30:31.066Z,73.00
2017-10-24T12:32:59.204Z,73.60
2017-10-24T12:35:28.105Z,72.60
2017-10-24T12:37:57.030Z,73.20
2017-10-24T12:40:25.924Z,73.20
2017-10-24T12:42:54.089Z,73.10
2017-10-24T12:45:26.474Z,71.80
2017-10-24T12:47:54.605Z,71.70
2017-10-24T12:50:37.615Z,72.70
2017-10-24T12:53:05.831Z,73.60
2017-10-24T12:55:33.950Z,72.60
2017-10-24T12:58:13.433Z,71.60
2017-10-24T13:00:53.914Z,71.70
2017-10-24T13:03:24.642Z,71.90
2017-10-24T13:06:05.796Z,73.00
2017-10-24T13:08:39.929Z,73.10
2017-10-24T13:11:20.861Z,72.90
2017-10-24T13:13:52.030Z,72.30
2017-10-24T13:16:28.442Z,72.50
2017-10-24T13:19:05.282Z,72.70
2017-10-24T13:21:48.316Z,72.70
2017-10-24T13:24:18.765Z,72.70
2017-10-24T13:26:49.451Z,72.60
2017-10-24T13:29:17.593Z,72.30
2017-10-24T13:31:46.524Z,73.40
2017-10-24T13:34:14.637Z,73.30
2017-10-24T13:36:42.776Z,73.30
2017-10-24T13:39:10.910Z,73.10
2017-10-24T13:41:39.818Z,72.90
2017-10-24T13:44:07.984Z,72.90
2017-10-24T13:46:36.919Z,71.00
2017-10-24T13:49:05.053Z,71.00
2017-10-24T13:51:33.193Z,71.10
2017-10-24T13:54:01.331Z,70.70
2017-10-24T13:56:29.469Z,71.90
2017-10-24T13:58:57.599Z,71.40
2017-10-24T14:01:25.768Z,70.60
2017-10-24T14:03:53.912Z,70.60
2017-10-24T14:06:27.597Z,71.40
2017-10-24T14:09:01.488Z,71.70
2017-10-24T14:11:31.358Z,71.80
2017-10-24T14:13:59.479Z,71.80
2017-10-24T14:16:27.631Z,71.10
2017-10-24T14:18:55.781Z,71.10
2017-10-24T14:21:23.990Z,71.40
2017-10-24T14:23:52.156Z,71.00
2017-10-24T14:26:20.284Z,71.00
2017-10-24T14:28:48.408Z,71.80
2017-10-24T14:31:16.564Z,72.30
2017-10-24T14:33:44.718Z,72.10
2017-10-24T14:36:13.656Z,71.90
2017-10-24T14:38:41.795Z,71.90
2017-10-24T14:41:09.916Z,72.40
2017-10-24T14:43:41.816Z,72.30
2017-10-24T14:46:11.457Z,74.50
2017-10-24T14:48:39.575Z,74.50
2017-10-24T14:51:07.730Z,74.70
2017-10-24T14:53:35.928Z,74.50
2017-10-24T14:56:05.590Z,74.90
2017-10-24T14:58:33.757Z,75.20
2017-10-24T15:01:01.926Z,75.50
2017-10-24T15:03:30.973Z,75.40
2017-10-24T15:05:59.155Z,75.90
2017-10-24T15:08:28.040Z,75.50
2017-10-24T15:10:57.293Z,75.90
2017-10-24T15:13:25.428Z,75.80
2017-10-24T15:15:54.388Z,75.60
2017-10-24T15:18:22.553Z,75.60
2017-10-24T15:20:50.738Z,75.50
2017-10-24T15:23:18.990Z,75.80
2017-10-24T15:25:47.163Z,75.30
2017-10-24T15:28:15.315Z,75.50
2017-10-24T15:30:43.530Z,75.50
2017-10-24T15:33:11.708Z,76.10
2017-10-24T15:35:39.855Z,76.10
2017-10-24T15:38:08.070Z,76.00
2017-10-24T15:40:36.196Z,75.60
2017-10-24T15:43:04.486Z,75.60
2017-10-24T15:45:32.713Z,75.70
2017-10-24T15:48:00.921Z,75.80
2017-10-24T15:50:29.833Z,75.50
2017-10-24T15:52:58.713Z,75.80
2017-10-24T15:55:26.988Z,75.70
2017-10-24T15:57:55.884Z,77.00
2017-10-24T16:00:24.073Z,76.30
2017-10-24T16:02:52.376Z,76.10
2017-10-24T16:05:20.536Z,76.40
2017-10-24T16:07:48.678Z,76.40
2017-10-24T16:10:17.601Z,76.00
2017-10-24T16:12:45.765Z,76.00
2017-10-24T16:15:14.734Z,75.90
2017-10-24T16:17:43.654Z,75.90
2017-10-24T16:20:11.815Z,75.90
2017-10-24T16:22:39.934Z,75.90
2017-10-24T16:25:08.095Z,76.10
2017-10-24T16:27:37.012Z,76.10
2017-10-24T16:30:05.171Z,76.10
2017-10-24T16:32:34.204Z,76.20
2017-10-24T16:35:02.343Z,76.20
2017-10-24T16:37:30.508Z,76.80
2017-10-24T16:39:59.948Z,76.40
2017-10-24T16:42:28.091Z,76.30
2017-10-24T16:44:56.984Z,76.40
2017-10-24T16:47:25.901Z,76.40
2017-10-24T16:49:54.245Z,76.40
2017-10-24T16:52:23.169Z,76.80
2017-10-24T16:54:51.306Z,76.70
2017-10-24T16:57:20.221Z,77.20
2017-10-24T16:59:49.306Z,77.80
2017-10-24T17:02:18.201Z,77.70
2017-10-24T17:04:46.397Z,77.60
2017-10-24T17:07:14.559Z,78.20
2017-10-24T17:09:42.747Z,78.60
2017-10-24T17:12:11.152Z,78.80
2017-10-24T17:14:40.205Z,78.90
2017-10-24T17:17:08.353Z,78.90
2017-10-24T17:19:36.948Z,79.10
2017-10-24T17:22:05.864Z,79.00
2017-10-24T17:24:34.148Z,79.00
2017-10-24T17:27:02.299Z,79.10
2017-10-24T17:29:31.175Z,79.40
2017-10-24T17:31:59.342Z,79.50
2017-10-24T17:34:27.503Z,79.50
2017-10-24T17:36:55.624Z,80.00
2017-10-24T17:39:23.781Z,80.20
2017-10-24T17:41:51.951Z,80.40
2017-10-24T17:44:20.149Z,81.00
2017-10-24T17:46:48.290Z,81.10
2017-10-24T17:49:16.512Z,81.00
2017-10-24T17:51:44.657Z,80.90
2017-10-24T17:54:12.840Z,80.90
2017-10-24T17:56:41.037Z,81.00
2017-10-24T17:59:09.193Z,81.60
2017-10-24T18:01:37.388Z,81.70
2017-10-24T18:04:05.571Z,81.60
2017-10-24T18:06:33.733Z,81.60
2017-10-24T18:09:01.929Z,82.10
2017-10-24T18:11:30.093Z,82.30
2017-10-24T18:13:59.018Z,82.60
2017-10-24T18:16:27.178Z,82.60
2017-10-24T18:18:55.314Z,82.50
2017-10-24T18:21:24.870Z,83.40
2017-10-24T18:23:53.596Z,83.30
2017-10-24T18:26:22.511Z,83.00
2017-10-24T18:28:51.429Z,83.00
2017-10-24T18:31:19.702Z,82.70
2017-10-24T18:33:47.838Z,82.60
2017-10-24T18:36:16.021Z,82.30
2017-10-24T18:38:44.198Z,82.00
2017-10-24T18:41:12.346Z,81.90
2017-10-24T18:43:41.271Z,81.60
2017-10-24T18:46:09.400Z,81.60
2017-10-24T18:48:38.389Z,81.20
2017-10-24T18:51:06.516Z,81.20
2017-10-24T18:53:34.683Z,81.40
2017-10-24T18:56:02.816Z,82.10
2017-10-24T18:58:31.823Z,82.70
2017-10-24T19:01:00.726Z,82.60
2017-10-24T19:03:28.924Z,82.60
2017-10-24T19:05:58.047Z,82.50
2017-10-24T19:08:26.229Z,82.50
2017-10-24T19:10:54.907Z,82.40
2017-10-24T19:13:23.123Z,82.40
2017-10-24T19:15:51.331Z,82.70
2017-10-24T19:18:19.479Z,83.40
2017-10-24T19:20:47.643Z,83.60
2017-10-24T19:23:15.810Z,83.20
2017-10-24T19:25:44.736Z,83.70
2017-10-24T19:28:12.915Z,83.70
2017-10-24T19:30:41.068Z,83.90
2017-10-24T19:33:09.234Z,83.80
2017-10-24T19:35:38.158Z,83.20
2017-10-24T19:38:07.502Z,83.20
2017-10-24T19:40:36.437Z,82.30
2017-10-24T19:43:04.594Z,82.30
2017-10-24T19:45:32.872Z,82.70
2017-10-24T19:48:01.025Z,81.70
2017-10-24T19:50:29.189Z,81.50
2017-10-24T19:52:57.375Z,81.30
2017-10-24T19:55:25.555Z,81.40
2017-10-24T19:57:53.716Z,81.20
2017-10-24T20:00:22.648Z,80.70
2017-10-24T20:02:50.865Z,80.70
2017-10-24T20:05:19.810Z,80.70
2017-10-24T20:07:48.387Z,80.60
2017-10-24T20:10:16.563Z,81.00
2017-10-24T20:12:44.744Z,80.80
2017-10-24T20:15:12.928Z,80.70
2017-10-24T20:17:41.103Z,80.50
2017-10-24T20:20:09.575Z,80.20
2017-10-24T20:22:37.727Z,80.40
2017-10-24T20:25:05.871Z,80.40
2017-10-24T20:27:34.013Z,80.00
2017-10-24T20:30:02.226Z,80.10
2017-10-24T20:32:31.110Z,80.40
2017-10-24T20:34:59.268Z,80.40
2017-10-24T20:37:28.173Z,81.30
2017-10-24T20:39:57.099Z,81.60
2017-10-24T20:42:25.985Z,81.70
2017-10-24T20:44:54.901Z,82.10
2017-10-24T20:47:23.040Z,82.10
2017-10-24T20:49:51.977Z,82.70
2017-10-24T20:52:20.112Z,82.70
2017-10-24T20:54:49.001Z,82.80
2017-10-24T20:57:17.173Z,82.90
2017-10-24T20:59:45.313Z,83.30
2017-10-24T21:02:13.483Z,82.70
2017-10-24T21:04:41.661Z,82.50
2017-10-24T21:07:09.849Z,82.50
2017-10-24T21:09:37.992Z,82.20
2017-10-24T21:12:06.920Z,82.50
2017-10-24T21:14:35.054Z,82.40
2017-10-24T21:17:03.197Z,82.70
2017-10-24T21:19:31.371Z,82.80
2017-10-24T21:21:59.584Z,83.20
2017-10-24T21:24:28.478Z,83.00
2017-10-24T21:26:56.635Z,82.90
2017-10-24T21:29:25.568Z,83.10
2017-10-24T21:31:54.448Z,83.10
2017-10-24T21:34:23.346Z,83.80
2017-10-24T21:36:51.495Z,83.20
2017-10-24T21:39:19.654Z,83.40
2017-10-24T21:41:48.561Z,85.20
2017-10-24T21:44:17.491Z,85.40
2017-10-24T21:46:45.634Z,85.40
2017-10-24T21:49:14.564Z,85.20
2017-10-24T21:51:42.733Z,85.20
2017-10-24T21:54:10.888Z,85.00
2017-10-24T21:56:39.068Z,85.30
2017-10-24T21:59:07.200Z,85.00
2017-10-24T22:01:36.109Z,85.00
2017-10-24T22:04:04.282Z,85.00
2017-10-24T22:06:32.513Z,85.50
2017-10-24T22:09:00.624Z,85.50
2017-10-24T22:11:28.762Z,85.90
2017-10-24T22:13:56.921Z,86.20
2017-10-24T22:16:25.088Z,86.30
2017-10-24T22:18:53.224Z,86.10
2017-10-24T22:21:22.153Z,86.00
2017-10-24T22:23:50.282Z,85.90
2017-10-24T22:26:18.410Z,86.60
2017-10-24T22:28:46.583Z,86.40
2017-10-24T22:31:14.707Z,87.20
2017-10-24T22:33:43.612Z,87.50
2017-10-24T22:36:11.727Z,87.50
2017-10-24T22:38:39.881Z,88.10
2017-10-24T22:41:08.021Z,88.40
2017-10-24T22:43:36.922Z,89.20
2017-10-24T22:46:05.064Z,89.20
2017-10-24T22:48:33.177Z,89.40
2017-10-24T22:51:01.322Z,89.10
2017-10-24T22:53:30.243Z,89.70
2017-10-24T22:55:58.371Z,89.70
2017-10-24T22:58:26.521Z,89.80
2017-10-24T23:00:54.652Z,89.70
2017-10-24T23:03:22.777Z,89.40
2017-10-24T23:05:50.912Z,89.70
2017-10-24T23:08:19.053Z,89.30
2017-10-24T23:10:47.968Z,89.10
2017-10-24T23:13:16.101Z,89.00
2017-10-24T23:15:45.017Z,89.10
2017-10-24T23:18:13.142Z,89.10
2017-10-24T23:20:42.152Z,88.80
2017-10-24T23:23:10.277Z,88.50
2017-10-24T23:25:38.414Z,88.30
2017-10-24T23:28:06.570Z,88.00
2017-10-24T23:30:36.670Z,89.20
2017-10-24T23:33:04.815Z,88.90
2017-10-24T23:35:32.934Z,88.50
2017-10-24T23:38:01.057Z,88.60
2017-10-24T23:40:29.956Z,88.50
2017-10-24T23:42:58.893Z,87.70
2017-10-24T23:45:27.804Z,88.00
2017-10-24T23:47:55.929Z,88.00
2017-10-24T23:50:24.084Z,87.50
2017-10-24T23:52:52.220Z,87.40
2017-10-24T23:55:20.412Z,87.30
2017-10-24T23:57:48.582Z,87.40
